Time;durP1;ratioP1;P1;durP2;ratioP2;P2;SDS_P1;SDS_P2;PMS_P1;PMS_P2;Temp;Humidity;BMP_temperature;BMP_pressure;BME280_temperature;BME280_humidity;BME280_pressure;Samples;Min_cycle;Max_cycle;Signal;HPM_P1;HPM_P2
2022/10/04 00:01:09;;;;;;;15.05;6.90;;;12.80;99.90;;;;;;5093807;28;20044;-46
2022/10/04 00:04:03;;;;;;;14.63;5.70;;;12.70;99.90;;;;;;5094316;28;20031;-48
2022/10/04 00:06:29;;;;;;;12.73;6.50;;;12.70;99.90;;;;;;5094242;28;20430;-45
2022/10/04 00:09:04;;;;;;;12.65;6.40;;;12.50;99.90;;;;;;5092724;28;20039;-48
2022/10/04 00:11:37;;;;;;;17.33;6.70;;;12.60;99.90;;;;;;5094429;28;20032;-46
2022/10/04 00:14:14;;;;;;;14.85;6.93;;;12.60;99.90;;;;;;5094139;28;20107;-44
2022/10/04 00:16:40;;;;;;;13.93;6.65;;;12.60;99.90;;;;;;5093516;28;20565;-45
2022/10/04 00:19:15;;;;;;;13.75;6.60;;;12.70;99.90;;;;;;5093933;28;20032;-47
2022/10/04 00:21:56;;;;;;;14.38;6.53;;;12.60;99.90;;;;;;5093878;28;20043;-46
2022/10/04 00:24:24;;;;;;;18.60;6.82;;;12.70;99.90;;;;;;5093506;28;20043;-45
2022/10/04 00:26:49;;;;;;;13.88;6.20;;;12.60;99.90;;;;;;5091728;28;20505;-46
2022/10/04 00:29:34;;;;;;;13.10;6.20;;;12.70;99.90;;;;;;5093841;28;21317;-46
2022/10/04 00:32:09;;;;;;;13.45;6.53;;;12.60;99.90;;;;;;5093584;28;20469;-48
2022/10/04 00:34:35;;;;;;;13.38;6.50;;;12.70;99.90;;;;;;5093430;28;20078;-47
2022/10/04 00:37:12;;;;;;;13.38;6.53;;;12.60;99.90;;;;;;5093124;28;20063;-49
2022/10/04 00:39:43;;;;;;;17.50;6.50;;;12.70;99.90;;;;;;5092625;28;20048;-46
2022/10/04 00:42:27;;;;;;;14.35;6.57;;;12.70;99.90;;;;;;5092475;28;20047;-49
2022/10/04 00:45:13;;;;;;;13.07;5.82;;;12.70;99.90;;;;;;5093648;28;20507;-47
2022/10/04 00:47:45;;;;;;;13.00;6.40;;;12.60;99.90;;;;;;5093079;28;20468;-48
2022/10/04 00:50:30;;;;;;;17.35;6.90;;;12.60;99.90;;;;;;5093063;28;20036;-46
2022/10/04 00:52:57;;;;;;;13.82;6.10;;;12.60;99.90;;;;;;5092196;28;20035;-47
2022/10/04 00:55:46;;;;;;;13.05;6.30;;;12.60;99.90;;;;;;5093022;28;20093;-46
2022/10/04 00:58:23;;;;;;;12.07;5.88;;;12.60;99.90;;;;;;5092233;28;20081;-49
2022/10/04 01:00:52;;;;;;;15.43;5.93;;;12.70;99.90;;;;;;5093065;28;20543;-46
2022/10/04 01:03:26;;;;;;;11.27;5.55;;;12.40;99.90;;;;;;5093207;28;20091;-48
2022/10/04 01:05:55;;;;;;;13.25;6.53;;;12.60;99.90;;;;;;5093068;28;20517;-48
2022/10/04 01:08:32;;;;;;;15.30;7.03;;;12.50;99.90;;;;;;5092587;28;20052;-47
2022/10/04 01:11:01;;;;;;;12.30;6.07;;;12.50;99.90;;;;;;5092559;28;20082;-46
2022/10/04 01:13:30;;;;;;;15.38;6.03;;;12.40;99.90;;;;;;5093058;28;20515;-46
2022/10/04 01:16:06;;;;;;;15.02;6.50;;;12.40;99.90;;;;;;5092754;28;20036;-44
2022/10/04 01:18:34;;;;;;;14.18;6.75;;;12.50;99.90;;;;;;5092501;28;20042;-44
2022/10/04 01:21:02;;;;;;;12.88;6.78;;;12.40;99.90;;;;;;5092749;28;20035;-46
2022/10/04 01:23:50;;;;;;;15.63;7.05;;;12.40;99.90;;;;;;5092720;28;20372;-46
2022/10/04 01:26:25;;;;;;;13.43;6.22;;;12.40;99.90;;;;;;5092154;28;20052;-45
2022/10/04 01:28:52;;;;;;;14.57;6.57;;;12.40;99.90;;;;;;5091952;28;20044;-48
2022/10/04 01:31:18;;;;;;;13.15;6.47;;;12.40;99.90;;;;;;5073988;28;20036;-47
2022/10/04 01:33:45;;;;;;;12.85;6.57;;;12.30;99.90;;;;;;5092251;28;20043;-46
2022/10/04 01:36:11;;;;;;;14.55;6.07;;;12.50;99.90;;;;;;5092401;28;20542;-45
2022/10/04 01:38:37;;;;;;;13.93;6.95;;;12.30;99.90;;;;;;5092441;28;20119;-44
2022/10/04 01:41:05;;;;;;;10.88;6.10;;;12.30;99.90;;;;;;5090717;28;20028;-43
2022/10/04 01:43:36;;;;;;;15.02;6.75;;;12.30;99.90;;;;;;5092205;28;20036;-46
2022/10/04 01:46:09;;;;;;;13.55;6.90;;;12.30;99.90;;;;;;5092226;28;20034;-46
2022/10/04 01:48:36;;;;;;;13.60;6.75;;;12.30;99.90;;;;;;5092015;28;20036;-48
2022/10/04 01:51:18;;;;;;;12.20;6.95;;;12.20;99.90;;;;;;5090426;28;20032;-46
2022/10/04 01:54:05;;;;;;;17.60;7.10;;;12.20;99.90;;;;;;5092128;28;20227;-45
2022/10/04 01:56:53;;;;;;;14.77;7.53;;;12.20;99.90;;;;;;5091723;28;20047;-49
2022/10/04 01:59:25;;;;;;;13.23;6.82;;;12.30;99.90;;;;;;5080534;28;20051;-48
2022/10/04 02:02:14;;;;;;;15.20;7.13;;;12.20;99.90;;;;;;5092148;28;20112;-47
2022/10/04 02:04:41;;;;;;;12.55;7.28;;;12.20;99.90;;;;;;5090908;28;20039;-46
2022/10/04 02:07:13;;;;;;;15.30;7.72;;;12.10;99.90;;;;;;5091680;28;20044;-47
2022/10/04 02:09:42;;;;;;;11.95;7.90;;;12.10;99.90;;;;;;5091340;28;20052;-48
2022/10/04 02:12:15;;;;;;;15.90;7.38;;;12.10;99.90;;;;;;5091844;28;20044;-45
2022/10/04 02:14:51;;;;;;;17.47;7.90;;;12.00;99.90;;;;;;5091717;28;20070;-47
2022/10/04 02:17:23;;;;;;;13.23;8.13;;;11.90;99.90;;;;;;5091410;28;20458;-46
2022/10/04 02:19:51;;;;;;;17.67;7.63;;;11.80;99.90;;;;;;5091407;28;20040;-48
2022/10/04 02:22:17;;;;;;;13.60;8.07;;;11.90;99.90;;;;;;5091432;28;20610;-47
2022/10/04 02:24:47;;;;;;;22.08;9.10;;;11.80;99.90;;;;;;5091201;28;20066;-45
2022/10/04 02:27:14;;;;;;;18.08;9.60;;;11.80;99.90;;;;;;5089623;28;20048;-45
2022/10/04 02:29:41;;;;;;;13.63;8.50;;;11.70;99.90;;;;;;5091223;28;20114;-46
2022/10/04 02:34:54;;;;;;;15.43;9.27;;;11.70;99.90;;;;;;5091083;28;20043;-46
2022/10/04 02:37:22;;;;;;;17.98;8.80;;;11.70;99.90;;;;;;5091086;28;20039;-46
2022/10/04 02:40:12;;;;;;;19.35;9.13;;;11.70;99.90;;;;;;5090977;28;20064;-45
2022/10/04 02:43:02;;;;;;;19.25;9.02;;;11.70;99.90;;;;;;5083524;28;20073;-46
2022/10/04 02:45:46;;;;;;;20.48;8.82;;;11.50;99.90;;;;;;5091408;28;20039;-45
2022/10/04 02:48:24;;;;;;;15.18;8.25;;;11.60;99.90;;;;;;5091063;28;20039;-47
2022/10/04 02:50:54;;;;;;;16.98;9.05;;;11.60;99.90;;;;;;5091071;28;20457;-48
2022/10/04 02:53:33;;;;;;;15.52;8.73;;;11.50;99.90;;;;;;5091121;28;20043;-46
2022/10/04 02:56:01;;;;;;;17.17;9.50;;;11.60;99.90;;;;;;5091127;28;20040;-45
2022/10/04 02:58:27;;;;;;;15.15;9.70;;;11.50;99.90;;;;;;5090552;28;20368;-48
2022/10/04 03:00:58;;;;;;;19.35;9.02;;;11.50;99.90;;;;;;5090387;28;20043;-49
2022/10/04 03:03:33;;;;;;;18.30;8.80;;;11.40;99.90;;;;;;5089818;28;20051;-49
2022/10/04 03:06:13;;;;;;;15.90;8.70;;;11.30;99.90;;;;;;5089327;28;20154;-47
2022/10/04 03:08:46;;;;;;;12.05;8.43;;;11.30;99.90;;;;;;5090943;28;20040;-48
2022/10/04 03:11:14;;;;;;;13.90;8.43;;;11.30;99.90;;;;;;5091119;28;20098;-50
2022/10/04 03:13:45;;;;;;;15.20;8.75;;;11.30;99.90;;;;;;5090643;28;20047;-47
2022/10/04 03:16:12;;;;;;;13.23;8.82;;;11.20;99.90;;;;;;5090947;28;20024;-46
2022/10/04 03:18:38;;;;;;;15.55;9.50;;;11.30;99.90;;;;;;5090744;28;20040;-44
2022/10/04 03:21:10;;;;;;;19.90;8.82;;;11.20;99.90;;;;;;5089256;28;20039;-47
2022/10/04 03:23:37;;;;;;;15.82;9.07;;;11.30;99.90;;;;;;5090644;28;20101;-46
2022/10/04 03:26:18;;;;;;;16.92;9.20;;;11.10;99.90;;;;;;5090579;28;20392;-48
2022/10/04 03:28:45;;;;;;;14.60;8.70;;;11.10;99.90;;;;;;5090484;28;20487;-47
2022/10/04 03:31:14;;;;;;;18.48;10.07;;;11.10;99.90;;;;;;5090418;28;20079;-47
2022/10/04 03:33:42;;;;;;;15.10;9.00;;;11.00;99.90;;;;;;5089080;28;20044;-48
2022/10/04 03:36:12;;;;;;;14.38;8.63;;;11.00;99.90;;;;;;5090235;28;20032;-46
2022/10/04 03:38:39;;;;;;;16.60;9.70;;;11.10;99.90;;;;;;5089469;28;20040;-49
2022/10/04 03:41:05;;;;;;;17.40;10.18;;;10.90;99.90;;;;;;5090635;28;20040;-46
2022/10/04 03:43:35;;;;;;;16.90;9.80;;;11.00;99.90;;;;;;5105171;28;20375;-45
2022/10/04 03:46:04;;;;;;;21.67;9.50;;;11.00;99.90;;;;;;5090390;28;20370;-49
2022/10/04 03:48:50;;;;;;;16.30;9.80;;;10.90;99.90;;;;;;5090305;28;20127;-47
2022/10/04 03:51:20;;;;;;;16.52;9.38;;;11.10;99.90;;;;;;5090282;28;20128;-50
2022/10/04 03:53:56;;;;;;;17.15;10.27;;;10.80;99.90;;;;;;5090400;28;20077;-48
2022/10/04 03:56:28;;;;;;;16.10;10.15;;;10.80;99.90;;;;;;5090687;28;20504;-47
2022/10/04 03:58:54;;;;;;;19.23;11.05;;;10.90;99.90;;;;;;5090244;28;20148;-47
2022/10/04 04:01:40;;;;;;;17.13;10.25;;;10.80;99.90;;;;;;5089111;28;20055;-46
2022/10/04 04:04:30;;;;;;;22.08;10.25;;;10.90;99.90;;;;;;5090497;28;20038;-47
2022/10/04 04:07:05;;;;;;;18.30;11.05;;;10.90;99.90;;;;;;5090404;28;20079;-45
2022/10/04 04:09:41;;;;;;;17.23;10.38;;;10.90;99.90;;;;;;5090350;28;20047;-49
2022/10/04 04:12:13;;;;;;;16.45;10.88;;;10.90;99.90;;;;;;5090284;28;20036;-44
2022/10/04 04:14:41;;;;;;;17.00;10.20;;;10.90;99.90;;;;;;5094215;28;20045;-47
2022/10/04 04:17:26;;;;;;;17.50;10.10;;;10.80;99.90;;;;;;5093916;28;20479;-48
2022/10/04 04:19:56;;;;;;;21.75;10.60;;;10.80;99.90;;;;;;5093728;28;20036;-47
2022/10/04 04:22:22;;;;;;;19.35;11.13;;;10.70;99.90;;;;;;5093901;28;20040;-46
2022/10/04 04:24:49;;;;;;;22.73;12.23;;;10.70;99.90;;;;;;5093996;28;20121;-47
2022/10/04 04:27:17;;;;;;;20.15;10.73;;;10.80;99.90;;;;;;5093062;28;20060;-47
2022/10/04 04:29:49;;;;;;;22.50;11.60;;;10.70;99.90;;;;;;5093512;28;20032;-45
2022/10/04 04:32:23;;;;;;;27.75;11.95;;;10.70;99.90;;;;;;5093691;28;20051;-49
2022/10/04 04:35:05;;;;;;;23.45;11.48;;;10.70;99.90;;;;;;5092396;28;20039;-47
2022/10/04 04:37:32;;;;;;;22.08;12.63;;;10.70;99.90;;;;;;5093331;28;20453;-46
2022/10/04 04:40:20;;;;;;;24.40;13.48;;;10.60;99.90;;;;;;5092138;28;20040;-45
2022/10/04 04:42:49;;;;;;;22.45;12.73;;;10.60;99.90;;;;;;5093220;28;20032;-47
2022/10/04 04:45:18;;;;;;;21.08;13.30;;;10.50;99.90;;;;;;5093579;28;20082;-45
2022/10/04 04:47:52;;;;;;;28.33;13.25;;;10.70;99.90;;;;;;5093228;28;20113;-45
2022/10/04 04:50:21;;;;;;;20.30;13.27;;;10.70;99.90;;;;;;5093098;28;20036;-47
2022/10/04 04:52:51;;;;;;;22.95;13.13;;;10.50;99.90;;;;;;5093464;28;20024;-47
2022/10/04 04:55:31;;;;;;;23.20;14.40;;;10.60;99.90;;;;;;5093451;28;20027;-46
2022/10/04 04:57:58;;;;;;;21.75;13.75;;;10.50;99.90;;;;;;5092827;28;20080;-45
2022/10/04 05:00:30;;;;;;;22.08;13.07;;;10.50;99.90;;;;;;5093005;28;20036;-48
2022/10/04 05:02:58;;;;;;;25.98;14.52;;;10.60;99.90;;;;;;5092757;28;20047;-43
2022/10/04 05:05:29;;;;;;;23.92;13.30;;;10.60;99.90;;;;;;5090340;28;20053;-46
2022/10/04 05:08:12;;;;;;;18.50;13.90;;;10.60;99.90;;;;;;5092984;28;20036;-46
2022/10/04 05:10:43;;;;;;;22.45;13.88;;;10.50;99.90;;;;;;5092663;28;20040;-47
2022/10/04 05:13:10;;;;;;;19.70;13.48;;;10.30;99.90;;;;;;5093019;28;20107;-43
2022/10/04 05:15:38;;;;;;;26.42;14.10;;;10.50;99.90;;;;;;5092739;28;20036;-47
2022/10/04 05:18:33;;;;;;;27.13;13.63;;;10.60;99.90;;;;;;5092901;28;20036;-48
2022/10/04 05:21:03;;;;;;;;;;;10.50;99.90;;;;;;5075419;28;20131;-47
2022/10/04 05:23:29;;;;;;;27.52;13.90;;;10.60;99.90;;;;;;5092782;28;20417;-47
2022/10/04 05:25:54;;;;;;;21.85;13.48;;;10.50;99.90;;;;;;5091583;28;20118;-47
2022/10/04 05:28:20;;;;;;;23.30;13.75;;;10.40;99.90;;;;;;5092179;28;20058;-44
2022/10/04 05:31:14;;;;;;;26.80;14.90;;;10.60;99.90;;;;;;5092501;28;20040;-47
2022/10/04 05:33:52;;;;;;;25.20;14.95;;;10.50;99.90;;;;;;5092586;28;20383;-46
2022/10/04 05:36:46;;;;;;;27.83;14.88;;;10.60;99.90;;;;;;5090854;28;20067;-49
2022/10/04 05:39:26;;;;;;;20.60;14.15;;;10.30;99.90;;;;;;5092463;28;20080;-49
2022/10/04 05:41:58;;;;;;;20.33;13.38;;;10.40;99.90;;;;;;5092220;28;20122;-46
2022/10/04 05:44:28;;;;;;;26.25;15.27;;;10.40;99.90;;;;;;5092280;28;20032;-46
2022/10/04 05:47:00;;;;;;;24.27;15.55;;;10.50;99.90;;;;;;5092143;28;20040;-47
2022/10/04 05:49:31;;;;;;;25.55;15.13;;;10.50;99.90;;;;;;5092177;28;20490;-44
2022/10/04 05:52:11;;;;;;;21.90;15.63;;;10.40;99.90;;;;;;5090721;28;20078;-46
2022/10/04 05:54:37;;;;;;;22.27;15.02;;;10.40;99.90;;;;;;5091926;28;20426;-46
2022/10/04 05:57:18;;;;;;;28.25;15.15;;;10.40;99.90;;;;;;5091671;28;20316;-48
2022/10/04 06:00:03;;;;;;;25.10;15.25;;;10.60;99.90;;;;;;5092097;28;20050;-46
2022/10/04 06:03:06;;;;;;;22.88;14.50;;;10.50;99.90;;;;;;5092045;28;20047;-47
2022/10/04 06:05:35;;;;;;;22.88;14.30;;;10.70;99.90;;;;;;5091850;28;20036;-45
2022/10/04 06:08:29;;;;;;;20.38;14.48;;;10.60;99.90;;;;;;5091250;28;20067;-44
2022/10/04 06:11:21;;;;;;;24.83;15.23;;;10.40;99.90;;;;;;5091803;28;20510;-47
2022/10/04 06:13:50;;;;;;;25.33;15.15;;;10.50;99.90;;;;;;5090207;28;20086;-45
2022/10/04 06:16:19;;;;;;;20.55;15.07;;;10.50;99.90;;;;;;5091365;28;20036;-46
2022/10/04 06:19:06;;;;;;;24.88;15.77;;;10.70;99.90;;;;;;5090436;28;20046;-48
2022/10/04 06:22:15;;;;;;;26.20;15.77;;;10.50;99.90;;;;;;5091489;28;20067;-48
2022/10/04 06:24:43;;;;;;;24.10;15.50;;;10.40;99.90;;;;;;5009115;28;20048;-44
2022/10/04 06:27:15;;;;;;;26.23;16.58;;;10.60;99.90;;;;;;5079668;28;20052;-47
2022/10/04 06:30:17;;;;;;;22.70;16.17;;;10.70;99.90;;;;;;5091538;28;20110;-50
2022/10/04 06:32:52;;;;;;;20.60;15.18;;;10.70;99.90;;;;;;5008637;28;20129;-45
2022/10/04 06:35:31;;;;;;;24.77;15.75;;;10.70;99.90;;;;;;5076063;28;20052;-44
2022/10/04 06:38:43;;;;;;;24.50;15.43;;;10.40;99.90;;;;;;5090930;28;20071;-47
2022/10/04 06:41:27;;;;;;;23.45;16.13;;;10.50;99.90;;;;;;5008586;28;20069;-46
2022/10/04 06:44:20;;;;;;;24.63;16.83;;;10.50;99.90;;;;;;5090787;28;20052;-47
2022/10/04 06:46:51;;;;;;;28.98;16.88;;;10.60;99.90;;;;;;5090428;28;20097;-47
2022/10/04 06:49:45;;;;;;;23.25;17.20;;;10.70;99.90;;;;;;5091267;28;20028;-46
2022/10/04 06:52:59;;;;;;;22.90;16.83;;;10.40;99.90;;;;;;5090842;28;20172;-46
2022/10/04 06:55:33;;;;;;;31.75;16.30;;;10.40;99.90;;;;;;5027949;28;20397;-46
2022/10/04 06:58:22;;;;;;;25.40;17.50;;;10.50;99.90;;;;;;5027463;28;20064;-49
2022/10/04 07:00:58;;;;;;;23.98;16.75;;;10.70;99.90;;;;;;5059325;28;20039;-46
2022/10/04 07:03:52;;;;;;;25.13;17.90;;;10.70;99.90;;;;;;5091057;28;20130;-49
2022/10/04 07:06:24;;;;;;;27.23;18.43;;;10.80;99.90;;;;;;5090967;28;20485;-46
2022/10/04 07:08:55;;;;;;;32.60;19.48;;;10.80;99.90;;;;;;5090474;28;20048;-47
2022/10/04 07:11:36;;;;;;;27.75;19.33;;;10.60;99.90;;;;;;5090647;28;20391;-47
2022/10/04 07:14:01;;;;;;;31.02;19.45;;;11.00;99.90;;;;;;5091015;28;20032;-48
2022/10/04 07:16:36;;;;;;;30.77;19.42;;;10.80;99.90;;;;;;5090531;28;20040;-45
2022/10/04 07:19:26;;;;;;;30.25;19.77;;;11.00;99.90;;;;;;5089915;28;20063;-45
2022/10/04 07:22:05;;;;;;;29.92;19.17;;;11.10;99.90;;;;;;5091024;28;20066;-46
2022/10/04 07:24:43;;;;;;;26.63;18.30;;;11.00;99.90;;;;;;5090551;28;20043;-48
2022/10/04 07:27:14;;;;;;;26.65;18.90;;;11.10;99.90;;;;;;5089963;28;20101;-44
2022/10/04 07:29:45;;;;;;;30.95;19.25;;;11.20;99.90;;;;;;5090379;28;20048;-46
2022/10/04 07:32:20;;;;;;;29.25;19.17;;;11.40;99.90;;;;;;5090928;28;20071;-48
2022/10/04 07:34:58;;;;;;;23.77;18.60;;;11.60;99.90;;;;;;5090744;28;20524;-45
2022/10/04 07:37:27;;;;;;;27.75;18.98;;;11.70;99.90;;;;;;5090672;28;20036;-45
2022/10/04 07:40:31;;;;;;;22.42;18.25;;;11.60;99.90;;;;;;5089831;28;20032;-49
2022/10/04 07:43:26;;;;;;;25.08;16.90;;;11.90;99.90;;;;;;5090504;28;20052;-45
2022/10/04 07:46:01;;;;;;;25.00;17.00;;;11.90;99.90;;;;;;5082473;28;20047;-46
2022/10/04 07:48:27;;;;;;;21.65;16.13;;;11.90;99.90;;;;;;5092070;28;20391;-45
2022/10/04 07:51:17;;;;;;;24.00;17.60;;;12.00;99.90;;;;;;5093221;28;20036;-48
2022/10/04 07:53:57;;;;;;;23.23;16.27;;;12.30;99.90;;;;;;5094281;28;20028;-46
2022/10/04 07:56:50;;;;;;;20.05;16.25;;;12.10;99.90;;;;;;5094101;28;20043;-48
2022/10/04 07:59:28;;;;;;;23.77;17.60;;;12.10;99.90;;;;;;5094097;28;20079;-46
2022/10/04 08:02:18;;;;;;;25.98;17.23;;;12.20;99.90;;;;;;5093159;28;20398;-46
2022/10/04 08:05:14;;;;;;;25.30;17.92;;;12.20;99.90;;;;;;5094759;28;20036;-46
2022/10/04 08:08:01;;;;;;;21.92;16.65;;;12.00;99.90;;;;;;5093999;28;20092;-45
2022/10/04 08:10:34;;;;;;;20.25;16.80;;;12.10;99.90;;;;;;5093827;28;20079;-46
2022/10/04 08:13:38;;;;;;;20.63;18.08;;;12.40;99.90;;;;;;5093026;28;20065;-47
2022/10/04 08:16:29;;;;;;;23.50;16.60;;;12.30;99.90;;;;;;5011415;28;20044;-46
2022/10/04 08:19:14;;;;;;;24.20;17.00;;;12.50;99.90;;;;;;5092543;28;20040;-44
2022/10/04 08:22:04;;;;;;;27.77;18.35;;;12.50;99.90;;;;;;5075393;28;20040;-45
2022/10/04 08:24:57;;;;;;;26.80;18.38;;;12.70;99.90;;;;;;5093765;28;20036;-45
2022/10/04 08:29:41;;;;;;;20.83;15.55;;;13.00;99.90;;;;;;5093043;28;20044;-46
2022/10/04 08:30:29;;;;;;;;;;;13.10;99.90;;;;;;5093991;28;20483;-46
2022/10/04 08:33:05;;;;;;;19.63;12.48;;;13.30;99.90;;;;;;5093450;28;19931;-47
2022/10/04 08:35:38;;;;;;;17.25;12.68;;;13.40;99.90;;;;;;5092252;28;20044;-45
2022/10/04 08:38:25;;;;;;;16.10;13.32;;;13.30;99.90;;;;;;5093480;28;20111;-46
2022/10/04 08:41:23;;;;;;;19.75;12.88;;;13.30;99.90;;;;;;5093701;28;20388;-46
2022/10/04 08:44:37;;;;;;;15.50;11.50;;;13.20;99.90;;;;;;5092747;28;20082;-46
2022/10/04 08:47:20;;;;;;;14.95;11.18;;;13.40;99.90;;;;;;5070180;28;20052;-48
2022/10/04 08:50:20;;;;;;;18.00;11.70;;;13.30;99.90;;;;;;5092238;28;20060;-50
2022/10/04 08:53:02;;;;;;;15.73;11.13;;;13.40;99.90;;;;;;5092869;28;20036;-46
2022/10/04 08:55:54;;;;;;;15.68;10.68;;;13.20;99.90;;;;;;5093160;28;20132;-48
2022/10/04 08:58:34;;;;;;;15.98;9.98;;;13.40;99.90;;;;;;5092491;28;20040;-46
2022/10/04 09:01:42;;;;;;;14.98;10.77;;;13.50;99.90;;;;;;5092592;28;20552;-47
2022/10/04 09:04:36;;;;;;;14.15;8.90;;;13.60;99.90;;;;;;5091523;28;20079;-46
2022/10/04 09:07:19;;;;;;;17.40;8.70;;;13.90;99.90;;;;;;5092745;28;20051;-45
2022/10/04 09:10:22;;;;;;;15.15;8.73;;;14.10;99.90;;;;;;5093037;28;20036;-46
2022/10/04 09:13:23;;;;;;;14.32;8.75;;;14.40;99.90;;;;;;5091850;28;20097;-47
2022/10/04 09:15:55;;;;;;;16.70;8.35;;;14.60;99.90;;;;;;5063453;28;20044;-46
2022/10/04 09:18:36;;;;;;;11.70;7.32;;;14.70;99.90;;;;;;5092932;28;20118;-48
2022/10/04 09:21:15;;;;;;;14.55;7.93;;;14.90;99.90;;;;;;5091787;28;20032;-47
2022/10/04 09:24:08;;;;;;;11.32;6.75;;;15.00;99.90;;;;;;5092702;28;20043;-46
2022/10/04 09:26:49;;;;;;;14.23;6.70;;;15.10;99.90;;;;;;5092300;28;20093;-44
2022/10/04 09:29:21;;;;;;;11.63;7.07;;;15.10;99.90;;;;;;5091052;28;20036;-45
2022/10/04 09:31:58;;;;;;;13.32;7.47;;;15.10;99.90;;;;;;5092302;28;20044;-45
2022/10/04 09:34:37;;;;;;;13.80;8.13;;;15.30;99.90;;;;;;5090513;28;20081;-46
2022/10/04 09:37:40;;;;;;;14.00;7.60;;;15.30;99.90;;;;;;5092433;28;20067;-47
2022/10/04 09:40:30;;;;;;;12.63;7.60;;;15.30;99.90;;;;;;5091382;28;20044;-46
2022/10/04 09:43:17;;;;;;;13.75;8.13;;;15.30;99.90;;;;;;5092426;28;20048;-46
2022/10/04 09:46:06;;;;;;;13.45;8.02;;;15.30;99.90;;;;;;5073847;28;20117;-45
2022/10/04 09:49:06;;;;;;;13.52;8.32;;;15.40;99.90;;;;;;5092023;28;20035;-45
2022/10/04 09:52:03;;;;;;;12.15;8.40;;;15.40;99.90;;;;;;5092259;28;20051;-46
2022/10/04 09:54:46;;;;;;;14.07;8.23;;;15.40;99.90;;;;;;5092263;28;20035;-47
2022/10/04 09:57:44;;;;;;;14.68;9.50;;;15.30;99.90;;;;;;5090122;28;20089;-50
2022/10/04 10:00:24;;;;;;;14.73;7.97;;;15.30;99.90;;;;;;5091779;28;20051;-49
2022/10/04 10:03:07;;;;;;;15.75;8.73;;;15.40;99.90;;;;;;5091661;28;20043;-45
2022/10/04 10:06:03;;;;;;;13.25;7.57;;;15.50;99.90;;;;;;5091839;28;20036;-44
2022/10/04 10:08:52;;;;;;;13.02;8.10;;;15.50;99.90;;;;;;5091710;28;20052;-47
2022/10/04 10:14:16;;;;;;;14.15;8.38;;;15.70;99.90;;;;;;5091774;28;20512;-46
2022/10/04 10:17:00;;;;;;;17.15;7.72;;;15.70;99.90;;;;;;5091904;28;20145;-48
2022/10/04 10:19:47;;;;;;;13.02;7.43;;;15.90;99.90;;;;;;5090951;28;20126;-45
2022/10/04 10:22:29;;;;;;;13.15;6.95;;;15.90;99.90;;;;;;5091686;28;20119;-47
2022/10/04 10:25:20;;;;;;;11.70;6.70;;;16.10;99.90;;;;;;5091457;28;20078;-46
2022/10/04 10:28:20;;;;;;;12.15;7.05;;;16.20;99.90;;;;;;5090663;28;20131;-46
2022/10/04 10:30:57;;;;;;;13.02;7.03;;;16.10;99.90;;;;;;5065589;28;20050;-46
2022/10/04 10:33:29;;;;;;;13.35;6.90;;;16.20;99.90;;;;;;5089880;28;20044;-45
2022/10/04 10:36:16;;;;;;;14.10;7.18;;;16.10;99.90;;;;;;5091286;28;20404;-46
2022/10/04 10:38:53;;;;;;;14.70;7.28;;;16.40;99.90;;;;;;5090330;28;20034;-45
2022/10/04 10:41:38;;;;;;;11.60;6.78;;;16.50;99.90;;;;;;5091452;28;20044;-46
2022/10/04 10:44:21;;;;;;;11.48;7.20;;;16.60;99.90;;;;;;5091436;28;20383;-46
2022/10/04 10:47:21;;;;;;;11.63;6.95;;;16.70;99.90;;;;;;5091282;28;20483;-48
2022/10/04 10:50:24;;;;;;;13.30;6.93;;;16.80;99.90;;;;;;5091303;28;20082;-46
2022/10/04 10:53:30;;;;;;;12.38;7.47;;;16.90;99.90;;;;;;5091146;28;20038;-46
2022/10/04 10:56:31;;;;;;;13.88;7.95;;;17.10;99.90;;;;;;5090971;28;20028;-43
2022/10/04 10:59:00;;;;;;;11.52;7.40;;;17.00;99.90;;;;;;5090840;28;20032;-46
2022/10/04 11:01:59;;;;;;;14.50;7.47;;;16.80;99.90;;;;;;5090891;28;20044;-44
2022/10/04 11:04:37;;;;;;;12.73;7.30;;;16.90;99.90;;;;;;5091112;28;20480;-46
2022/10/04 11:07:44;;;;;;;10.95;6.57;;;17.00;99.90;;;;;;5091016;28;20486;-46
2022/10/04 11:10:48;;;;;;;11.05;6.70;;;17.10;99.90;;;;;;5034542;28;20068;-43
2022/10/04 11:13:52;;;;;;;12.75;7.57;;;17.20;99.90;;;;;;5090523;28;20040;-43
2022/10/04 11:16:34;;;;;;;13.88;6.95;;;17.10;99.90;;;;;;5090991;28;20616;-46
2022/10/04 11:19:28;;;;;;;11.30;6.80;;;17.00;99.90;;;;;;5089262;28;20071;-46
2022/10/04 11:22:23;;;;;;;14.27;8.02;;;17.30;99.90;;;;;;5089768;28;20032;-44
2022/10/04 11:25:07;;;;;;;18.65;8.35;;;17.60;99.90;;;;;;5094965;28;20051;-47
2022/10/04 11:27:51;;;;;;;12.05;7.10;;;17.70;99.90;;;;;;5094052;28;20052;-44
2022/10/04 11:30:25;;;;;;;11.98;7.10;;;17.90;99.90;;;;;;5094009;28;20082;-44
2022/10/04 11:33:39;;;;;;;9.95;5.63;;;18.20;99.90;;;;;;5094909;28;20036;-43
2022/10/04 11:36:42;;;;;;;9.68;4.90;;;18.50;99.90;;;;;;5021216;28;20046;-46
2022/10/04 11:39:39;;;;;;;8.02;4.68;;;18.70;99.90;;;;;;5092876;28;20089;-43
2022/10/04 11:42:26;;;;;;;8.95;4.60;;;18.80;99.90;;;;;;5094487;28;20071;-45
2022/10/04 11:45:18;;;;;;;8.43;4.57;;;18.90;99.90;;;;;;5094543;28;20475;-45
2022/10/04 11:48:01;;;;;;;9.30;4.53;;;19.00;99.90;;;;;;5094428;28;20039;-45
2022/10/04 11:50:34;;;;;;;8.70;3.87;;;19.10;99.90;;;;;;5094547;28;20071;-43
2022/10/04 11:53:20;;;;;;;8.88;4.05;;;19.20;99.90;;;;;;5094624;28;20483;-45
2022/10/04 11:55:56;;;;;;;6.88;4.10;;;19.10;99.90;;;;;;5094088;28;20047;-44
2022/10/04 11:58:51;;;;;;;5.57;3.53;;;19.30;99.90;;;;;;5094106;28;20048;-47
2022/10/04 12:01:43;;;;;;;6.15;3.83;;;19.50;99.90;;;;;;5094201;28;20119;-45
2022/10/04 12:04:52;;;;;;;7.72;3.88;;;19.60;99.90;;;;;;5064342;28;20062;-45
2022/10/04 12:07:33;;;;;;;10.52;4.00;;;19.70;99.90;;;;;;5093789;28;20047;-44
2022/10/04 12:10:20;;;;;;;8.93;3.83;;;19.80;99.90;;;;;;5094261;28;20069;-43
2022/10/04 12:13:10;;;;;;;7.70;3.67;;;19.80;99.90;;;;;;5094134;28;20036;-44
2022/10/04 12:15:48;;;;;;;8.45;3.75;;;20.00;99.90;;;;;;5094016;28;20043;-44
2022/10/04 12:18:27;;;;;;;7.13;3.40;;;20.10;99.90;;;;;;5093847;28;21297;-44
2022/10/04 12:21:19;;;;;;;8.75;3.40;;;20.40;99.90;;;;;;5093236;28;20048;-45
2022/10/04 12:24:03;;;;;;;7.45;3.15;;;20.50;99.90;;;;;;5093723;28;20059;-45
2022/10/04 12:26:34;;;;;;;7.18;3.35;;;20.60;99.90;;;;;;5093585;28;20040;-48
2022/10/04 12:29:19;;;;;;;10.02;3.35;;;20.50;99.90;;;;;;5093014;28;20044;-44
2022/10/04 12:31:46;;;;;;;;;;;20.60;99.90;;;;;;5075934;28;20090;-47
2022/10/04 12:34:47;;;;;;;7.38;3.00;;;20.70;99.90;;;;;;5093144;28;19971;-44
2022/10/04 12:37:31;;;;;;;9.15;3.40;;;20.90;99.90;;;;;;5079708;28;20059;-45
2022/10/04 12:40:09;;;;;;;8.93;3.10;;;21.00;99.90;;;;;;5093550;28;20036;-43
2022/10/04 12:42:53;;;;;;;6.20;2.97;;;21.00;99.90;;;;;;5093434;28;20131;-44
2022/10/04 12:45:26;;;;;;;6.63;3.38;;;21.10;99.90;;;;;;5092337;28;20460;-44
2022/10/04 12:48:31;;;;;;;6.13;3.03;;;21.00;99.90;;;;;;5093384;28;20032;-44
2022/10/04 12:51:26;;;;;;;6.38;2.97;;;21.10;99.90;;;;;;5093530;28;20497;-44
2022/10/04 12:54:16;;;;;;;9.07;3.20;;;21.00;99.90;;;;;;5086488;28;20388;-43
2022/10/04 12:57:01;;;;;;;5.85;3.10;;;20.70;99.90;;;;;;5092849;28;20047;-46
2022/10/04 12:59:34;;;;;;;;;;;20.40;99.90;;;;;;5092743;28;20072;-47
2022/10/04 13:02:37;;;;;;;6.03;2.65;;;20.30;99.90;;;;;;5092876;28;19958;-45
2022/10/04 13:05:21;;;;;;;6.63;3.28;;;20.40;99.90;;;;;;5093093;28;20360;-46
2022/10/04 13:08:24;;;;;;;9.10;3.17;;;20.40;99.90;;;;;;5092877;28;20043;-46
2022/10/04 13:10:56;;;;;;;5.97;3.03;;;20.30;99.90;;;;;;5091496;28;20052;-44
2022/10/04 13:13:22;;;;;;;6.68;3.10;;;20.30;99.90;;;;;;5092983;28;20505;-47
2022/10/04 13:16:13;;;;;;;5.70;2.78;;;20.00;99.90;;;;;;5092736;28;20048;-43
2022/10/04 13:18:45;;;;;;;8.45;3.38;;;19.80;99.90;;;;;;5092623;28;20039;-46
2022/10/04 13:21:19;;;;;;;6.43;2.65;;;19.60;99.90;;;;;;5091248;28;20043;-45
2022/10/04 13:24:15;;;;;;;7.78;3.30;;;20.10;99.90;;;;;;5092437;28;20096;-46
2022/10/04 13:27:03;;;;;;;7.47;2.78;;;20.20;99.90;;;;;;5090912;28;20123;-43
2022/10/04 13:29:46;;;;;;;7.93;2.88;;;20.60;99.90;;;;;;5092094;28;20060;-44
2022/10/04 13:32:39;;;;;;;6.82;2.88;;;21.00;99.90;;;;;;5092560;28;20123;-44
2022/10/04 13:35:20;;;;;;;5.78;2.67;;;21.20;99.90;;;;;;5092379;28;20118;-44
2022/10/04 13:38:23;;;;;;;6.63;2.78;;;21.40;99.90;;;;;;5092615;28;20188;-45
2022/10/04 13:41:09;;;;;;;7.47;2.92;;;21.40;99.60;;;;;;5092447;28;20505;-47
2022/10/04 13:43:37;;;;;;;7.60;2.47;;;21.60;99.90;;;;;;5092344;28;20039;-45
2022/10/04 13:46:24;;;;;;;5.63;2.15;;;21.80;99.90;;;;;;5089390;28;20506;-47
2022/10/04 13:49:09;;;;;;;6.07;2.00;;;21.70;99.40;;;;;;5091558;28;20040;-49